sensor_id;sensor_type;location;lat;lon;timestamp;P1;durP1;ratioP1;P2;durP2;ratioP2
52888;SDS011;41413;52.770;6.892;2023-04-15T00:01:08;12.68;;;7.47;;
52888;SDS011;41413;52.770;6.892;2023-04-15T00:03:35;11.75;;;7.32;;
52888;SDS011;41413;52.770;6.892;2023-04-15T00:06:02;8.40;;;7.50;;
52888;SDS011;41413;52.770;6.892;2023-04-15T00:08:29;8.52;;;7.47;;
52888;SDS011;41413;52.770;6.892;2023-04-15T00:10:56;12.18;;;8.52;;
52888;SDS011;41413;52.770;6.892;2023-04-15T00:13:27;12.95;;;7.97;;
52888;SDS011;41413;52.770;6.892;2023-04-15T00:15:54;12.18;;;9.25;;
52888;SDS011;41413;52.770;6.892;2023-04-15T00:18:21;8.18;;;7.32;;
52888;SDS011;41413;52.770;6.892;2023-04-15T00:20:48;9.57;;;7.90;;
52888;SDS011;41413;52.770;6.892;2023-04-15T00:23:15;8.82;;;7.93;;
52888;SDS011;41413;52.770;6.892;2023-04-15T00:25:41;7.78;;;6.63;;
52888;SDS011;41413;52.770;6.892;2023-04-15T00:28:08;12.05;;;7.85;;
52888;SDS011;41413;52.770;6.892;2023-04-15T00:30:35;10.38;;;8.10;;
52888;SDS011;41413;52.770;6.892;2023-04-15T00:33:02;10.45;;;7.38;;
52888;SDS011;41413;52.770;6.892;2023-04-15T00:35:29;8.50;;;7.70;;
52888;SDS011;41413;52.770;6.892;2023-04-15T00:37:58;13.18;;;9.10;;
52888;SDS011;41413;52.770;6.892;2023-04-15T00:40:25;9.23;;;8.27;;
52888;SDS011;41413;52.770;6.892;2023-04-15T00:42:52;12.75;;;8.68;;
52888;SDS011;41413;52.770;6.892;2023-04-15T00:45:19;11.40;;;9.23;;
52888;SDS011;41413;52.770;6.892;2023-04-15T00:47:46;10.70;;;8.07;;
52888;SDS011;41413;52.770;6.892;2023-04-15T00:50:13;9.38;;;8.45;;
52888;SDS011;41413;52.770;6.892;2023-04-15T00:52:40;12.40;;;9.82;;
52888;SDS011;41413;52.770;6.892;2023-04-15T00:55:07;9.07;;;8.27;;
52888;SDS011;41413;52.770;6.892;2023-04-15T00:57:34;10.55;;;8.73;;
52888;SDS011;41413;52.770;6.892;2023-04-15T01:00:02;10.48;;;8.40;;
52888;SDS011;41413;52.770;6.892;2023-04-15T01:02:30;12.13;;;8.48;;
52888;SDS011;41413;52.770;6.892;2023-04-15T01:04:58;14.73;;;9.20;;
52888;SDS011;41413;52.770;6.892;2023-04-15T01:07:25;10.10;;;8.27;;
52888;SDS011;41413;52.770;6.892;2023-04-15T01:09:52;9.73;;;8.68;;
52888;SDS011;41413;52.770;6.892;2023-04-15T01:12:19;9.65;;;8.45;;
52888;SDS011;41413;52.770;6.892;2023-04-15T01:14:46;11.65;;;9.18;;
52888;SDS011;41413;52.770;6.892;2023-04-15T01:17:13;9.05;;;8.18;;
52888;SDS011;41413;52.770;6.892;2023-04-15T01:19:40;12.48;;;9.45;;
52888;SDS011;41413;52.770;6.892;2023-04-15T01:22:07;10.52;;;9.25;;
52888;SDS011;41413;52.770;6.892;2023-04-15T01:24:34;9.27;;;7.88;;
52888;SDS011;41413;52.770;6.892;2023-04-15T01:27:01;12.68;;;8.27;;
52888;SDS011;41413;52.770;6.892;2023-04-15T01:29:31;13.05;;;8.23;;
52888;SDS011;41413;52.770;6.892;2023-04-15T01:31:58;14.35;;;9.63;;
52888;SDS011;41413;52.770;6.892;2023-04-15T01:34:25;9.27;;;8.35;;
52888;SDS011;41413;52.770;6.892;2023-04-15T01:36:52;9.30;;;7.93;;
52888;SDS011;41413;52.770;6.892;2023-04-15T01:39:19;10.85;;;8.38;;
52888;SDS011;41413;52.770;6.892;2023-04-15T01:41:45;9.27;;;8.38;;
52888;SDS011;41413;52.770;6.892;2023-04-15T01:44:12;10.45;;;9.55;;
52888;SDS011;41413;52.770;6.892;2023-04-15T01:46:39;9.30;;;8.40;;
52888;SDS011;41413;52.770;6.892;2023-04-15T01:49:06;9.70;;;8.65;;
52888;SDS011;41413;52.770;6.892;2023-04-15T01:51:33;10.15;;;9.15;;
52888;SDS011;41413;52.770;6.892;2023-04-15T01:54:00;8.18;;;7.38;;
52888;SDS011;41413;52.770;6.892;2023-04-15T01:56:27;11.38;;;9.13;;
52888;SDS011;41413;52.770;6.892;2023-04-15T01:58:53;8.70;;;7.85;;
52888;SDS011;41413;52.770;6.892;2023-04-15T02:01:20;12.70;;;10.77;;
52888;SDS011;41413;52.770;6.892;2023-04-15T02:03:47;11.45;;;9.70;;
52888;SDS011;41413;52.770;6.892;2023-04-15T02:06:14;10.07;;;9.15;;
52888;SDS011;41413;52.770;6.892;2023-04-15T02:08:41;10.00;;;8.50;;
52888;SDS011;41413;52.770;6.892;2023-04-15T02:11:08;10.85;;;9.80;;
52888;SDS011;41413;52.770;6.892;2023-04-15T02:13:35;11.18;;;9.93;;
52888;SDS011;41413;52.770;6.892;2023-04-15T02:16:02;11.13;;;10.10;;
52888;SDS011;41413;52.770;6.892;2023-04-15T02:18:29;9.73;;;8.85;;
52888;SDS011;41413;52.770;6.892;2023-04-15T02:20:56;10.07;;;9.07;;
52888;SDS011;41413;52.770;6.892;2023-04-15T02:23:24;10.82;;;9.82;;
52888;SDS011;41413;52.770;6.892;2023-04-15T02:25:51;10.38;;;9.35;;
52888;SDS011;41413;52.770;6.892;2023-04-15T02:28:19;9.93;;;8.77;;
52888;SDS011;41413;52.770;6.892;2023-04-15T02:30:47;10.75;;;9.68;;
52888;SDS011;41413;52.770;6.892;2023-04-15T02:33:19;10.82;;;9.75;;
52888;SDS011;41413;52.770;6.892;2023-04-15T02:35:46;10.32;;;9.32;;
52888;SDS011;41413;52.770;6.892;2023-04-15T02:38:13;9.70;;;8.80;;
52888;SDS011;41413;52.770;6.892;2023-04-15T02:40:41;13.07;;;9.85;;
52888;SDS011;41413;52.770;6.892;2023-04-15T02:43:08;11.63;;;9.02;;
52888;SDS011;41413;52.770;6.892;2023-04-15T02:45:35;9.02;;;8.13;;
52888;SDS011;41413;52.770;6.892;2023-04-15T02:48:02;10.05;;;8.82;;
52888;SDS011;41413;52.770;6.892;2023-04-15T02:50:31;12.93;;;9.73;;
52888;SDS011;41413;52.770;6.892;2023-04-15T02:52:58;10.57;;;9.57;;
52888;SDS011;41413;52.770;6.892;2023-04-15T02:55:27;10.38;;;9.32;;
52888;SDS011;41413;52.770;6.892;2023-04-15T02:57:54;13.55;;;9.25;;
52888;SDS011;41413;52.770;6.892;2023-04-15T03:00:21;11.23;;;8.45;;
52888;SDS011;41413;52.770;6.892;2023-04-15T03:02:50;15.43;;;9.75;;
52888;SDS011;41413;52.770;6.892;2023-04-15T03:05:21;10.85;;;8.93;;
52888;SDS011;41413;52.770;6.892;2023-04-15T03:07:51;11.63;;;10.52;;
52888;SDS011;41413;52.770;6.892;2023-04-15T03:10:18;12.70;;;10.20;;
52888;SDS011;41413;52.770;6.892;2023-04-15T03:12:46;10.98;;;9.15;;
52888;SDS011;41413;52.770;6.892;2023-04-15T03:15:14;12.25;;;9.65;;
52888;SDS011;41413;52.770;6.892;2023-04-15T03:17:40;11.52;;;10.25;;
52888;SDS011;41413;52.770;6.892;2023-04-15T03:20:07;12.13;;;10.88;;
52888;SDS011;41413;52.770;6.892;2023-04-15T03:22:35;11.05;;;9.95;;
52888;SDS011;41413;52.770;6.892;2023-04-15T03:25:02;13.13;;;11.60;;
52888;SDS011;41413;52.770;6.892;2023-04-15T03:27:29;15.15;;;10.75;;
52888;SDS011;41413;52.770;6.892;2023-04-15T03:29:55;12.15;;;10.48;;
52888;SDS011;41413;52.770;6.892;2023-04-15T03:32:22;14.02;;;10.75;;
52888;SDS011;41413;52.770;6.892;2023-04-15T03:34:49;15.25;;;11.40;;
52888;SDS011;41413;52.770;6.892;2023-04-15T03:37:16;13.40;;;11.90;;
52888;SDS011;41413;52.770;6.892;2023-04-15T03:39:42;12.40;;;11.10;;
52888;SDS011;41413;52.770;6.892;2023-04-15T03:42:09;15.63;;;11.50;;
52888;SDS011;41413;52.770;6.892;2023-04-15T03:44:36;13.65;;;12.23;;
52888;SDS011;41413;52.770;6.892;2023-04-15T03:47:03;11.65;;;10.45;;
52888;SDS011;41413;52.770;6.892;2023-04-15T03:49:30;12.93;;;11.60;;
52888;SDS011;41413;52.770;6.892;2023-04-15T03:51:56;14.35;;;11.82;;
52888;SDS011;41413;52.770;6.892;2023-04-15T03:54:23;18.00;;;11.77;;
52888;SDS011;41413;52.770;6.892;2023-04-15T03:56:50;17.33;;;12.38;;
52888;SDS011;41413;52.770;6.892;2023-04-15T03:59:17;13.73;;;12.30;;
52888;SDS011;41413;52.770;6.892;2023-04-15T04:01:43;12.55;;;11.35;;
52888;SDS011;41413;52.770;6.892;2023-04-15T04:04:10;11.75;;;10.63;;
52888;SDS011;41413;52.770;6.892;2023-04-15T04:06:37;14.88;;;12.40;;
52888;SDS011;41413;52.770;6.892;2023-04-15T04:09:04;13.20;;;11.88;;
52888;SDS011;41413;52.770;6.892;2023-04-15T04:11:31;13.52;;;12.20;;
52888;SDS011;41413;52.770;6.892;2023-04-15T04:13:58;13.05;;;11.80;;
52888;SDS011;41413;52.770;6.892;2023-04-15T04:16:24;13.15;;;11.85;;
52888;SDS011;41413;52.770;6.892;2023-04-15T04:18:51;13.48;;;12.15;;
52888;SDS011;41413;52.770;6.892;2023-04-15T04:21:18;13.27;;;11.70;;
52888;SDS011;41413;52.770;6.892;2023-04-15T04:23:46;15.65;;;13.93;;
52888;SDS011;41413;52.770;6.892;2023-04-15T04:26:13;13.52;;;12.30;;
52888;SDS011;41413;52.770;6.892;2023-04-15T04:28:39;13.20;;;11.90;;
52888;SDS011;41413;52.770;6.892;2023-04-15T04:31:07;17.55;;;12.48;;
52888;SDS011;41413;52.770;6.892;2023-04-15T04:33:33;14.57;;;13.18;;
52888;SDS011;41413;52.770;6.892;2023-04-15T04:36:00;14.88;;;13.35;;
52888;SDS011;41413;52.770;6.892;2023-04-15T04:38:27;14.35;;;12.95;;
52888;SDS011;41413;52.770;6.892;2023-04-15T04:40:54;14.77;;;13.25;;
52888;SDS011;41413;52.770;6.892;2023-04-15T04:43:21;13.43;;;12.02;;
52888;SDS011;41413;52.770;6.892;2023-04-15T04:45:47;13.23;;;12.02;;
52888;SDS011;41413;52.770;6.892;2023-04-15T04:48:14;14.07;;;12.70;;
52888;SDS011;41413;52.770;6.892;2023-04-15T04:50:42;14.73;;;13.32;;
52888;SDS011;41413;52.770;6.892;2023-04-15T04:53:09;14.40;;;13.10;;
52888;SDS011;41413;52.770;6.892;2023-04-15T04:55:37;15.43;;;13.27;;
52888;SDS011;41413;52.770;6.892;2023-04-15T04:58:03;14.48;;;12.98;;
52888;SDS011;41413;52.770;6.892;2023-04-15T05:00:30;14.43;;;12.98;;
52888;SDS011;41413;52.770;6.892;2023-04-15T05:02:57;15.05;;;12.57;;
52888;SDS011;41413;52.770;6.892;2023-04-15T05:05:24;14.32;;;12.93;;
52888;SDS011;41413;52.770;6.892;2023-04-15T05:07:51;14.90;;;13.40;;
52888;SDS011;41413;52.770;6.892;2023-04-15T05:10:18;14.77;;;13.40;;
52888;SDS011;41413;52.770;6.892;2023-04-15T05:12:45;17.50;;;13.82;;
52888;SDS011;41413;52.770;6.892;2023-04-15T05:15:11;16.27;;;14.10;;
52888;SDS011;41413;52.770;6.892;2023-04-15T05:17:38;14.93;;;13.35;;
52888;SDS011;41413;52.770;6.892;2023-04-15T05:20:05;16.92;;;15.20;;
52888;SDS011;41413;52.770;6.892;2023-04-15T05:22:32;16.08;;;14.50;;
52888;SDS011;41413;52.770;6.892;2023-04-15T05:24:59;16.73;;;13.70;;
52888;SDS011;41413;52.770;6.892;2023-04-15T05:27:26;15.30;;;13.90;;
52888;SDS011;41413;52.770;6.892;2023-04-15T05:29:52;18.40;;;14.10;;
52888;SDS011;41413;52.770;6.892;2023-04-15T05:32:19;17.85;;;15.30;;
52888;SDS011;41413;52.770;6.892;2023-04-15T05:34:46;15.32;;;13.77;;
52888;SDS011;41413;52.770;6.892;2023-04-15T05:37:12;16.85;;;15.13;;
52888;SDS011;41413;52.770;6.892;2023-04-15T05:39:39;15.70;;;14.07;;
52888;SDS011;41413;52.770;6.892;2023-04-15T05:42:06;15.23;;;13.82;;
52888;SDS011;41413;52.770;6.892;2023-04-15T05:44:33;17.27;;;15.50;;
52888;SDS011;41413;52.770;6.892;2023-04-15T05:46:59;17.77;;;15.85;;
52888;SDS011;41413;52.770;6.892;2023-04-15T05:49:28;18.08;;;16.13;;
52888;SDS011;41413;52.770;6.892;2023-04-15T05:51:55;16.77;;;15.18;;
52888;SDS011;41413;52.770;6.892;2023-04-15T05:54:22;18.45;;;16.63;;
52888;SDS011;41413;52.770;6.892;2023-04-15T05:56:48;16.95;;;15.35;;
52888;SDS011;41413;52.770;6.892;2023-04-15T05:59:15;17.77;;;15.93;;
52888;SDS011;41413;52.770;6.892;2023-04-15T06:01:42;18.17;;;16.15;;
52888;SDS011;41413;52.770;6.892;2023-04-15T06:04:09;17.42;;;15.75;;
52888;SDS011;41413;52.770;6.892;2023-04-15T06:06:36;19.35;;;16.75;;
52888;SDS011;41413;52.770;6.892;2023-04-15T06:09:03;16.27;;;14.57;;
52888;SDS011;41413;52.770;6.892;2023-04-15T06:11:30;16.25;;;14.77;;
52888;SDS011;41413;52.770;6.892;2023-04-15T06:13:57;17.42;;;15.73;;
52888;SDS011;41413;52.770;6.892;2023-04-15T06:16:23;16.92;;;15.40;;
52888;SDS011;41413;52.770;6.892;2023-04-15T06:18:50;16.88;;;15.15;;
52888;SDS011;41413;52.770;6.892;2023-04-15T06:21:17;18.33;;;16.60;;
52888;SDS011;41413;52.770;6.892;2023-04-15T06:23:44;17.65;;;15.75;;
52888;SDS011;41413;52.770;6.892;2023-04-15T06:26:11;17.75;;;16.05;;
52888;SDS011;41413;52.770;6.892;2023-04-15T06:28:37;16.00;;;14.48;;
52888;SDS011;41413;52.770;6.892;2023-04-15T06:31:04;15.50;;;13.90;;
52888;SDS011;41413;52.770;6.892;2023-04-15T06:33:31;16.40;;;14.80;;
52888;SDS011;41413;52.770;6.892;2023-04-15T06:35:58;17.30;;;15.57;;
52888;SDS011;41413;52.770;6.892;2023-04-15T06:38:24;18.40;;;16.00;;
52888;SDS011;41413;52.770;6.892;2023-04-15T06:40:51;16.40;;;14.70;;
52888;SDS011;41413;52.770;6.892;2023-04-15T06:43:18;16.20;;;14.57;;
52888;SDS011;41413;52.770;6.892;2023-04-15T06:45:45;15.02;;;13.50;;
52888;SDS011;41413;52.770;6.892;2023-04-15T06:48:12;15.38;;;13.82;;
52888;SDS011;41413;52.770;6.892;2023-04-15T06:50:39;14.77;;;13.30;;
52888;SDS011;41413;52.770;6.892;2023-04-15T06:53:06;15.95;;;14.30;;
52888;SDS011;41413;52.770;6.892;2023-04-15T06:55:33;15.63;;;14.02;;
52888;SDS011;41413;52.770;6.892;2023-04-15T06:57:59;15.75;;;14.27;;
52888;SDS011;41413;52.770;6.892;2023-04-15T07:00:26;16.02;;;14.43;;
52888;SDS011;41413;52.770;6.892;2023-04-15T07:02:53;16.08;;;14.68;;
52888;SDS011;41413;52.770;6.892;2023-04-15T07:05:21;15.63;;;14.13;;
52888;SDS011;41413;52.770;6.892;2023-04-15T07:07:47;15.25;;;13.75;;
52888;SDS011;41413;52.770;6.892;2023-04-15T07:10:14;14.57;;;13.15;;
52888;SDS011;41413;52.770;6.892;2023-04-15T07:12:41;14.95;;;13.40;;
52888;SDS011;41413;52.770;6.892;2023-04-15T07:15:08;19.13;;;14.43;;
52888;SDS011;41413;52.770;6.892;2023-04-15T07:17:35;15.40;;;13.80;;
52888;SDS011;41413;52.770;6.892;2023-04-15T07:20:02;14.30;;;12.80;;
52888;SDS011;41413;52.770;6.892;2023-04-15T07:22:29;13.35;;;12.02;;
52888;SDS011;41413;52.770;6.892;2023-04-15T07:24:56;13.82;;;11.93;;
52888;SDS011;41413;52.770;6.892;2023-04-15T07:27:24;13.02;;;10.95;;
52888;SDS011;41413;52.770;6.892;2023-04-15T07:29:52;12.70;;;11.50;;
52888;SDS011;41413;52.770;6.892;2023-04-15T07:32:18;11.45;;;10.23;;
52888;SDS011;41413;52.770;6.892;2023-04-15T07:34:46;11.65;;;10.55;;
52888;SDS011;41413;52.770;6.892;2023-04-15T07:37:12;9.52;;;8.63;;
52888;SDS011;41413;52.770;6.892;2023-04-15T07:39:39;10.95;;;9.95;;
52888;SDS011;41413;52.770;6.892;2023-04-15T07:42:06;11.98;;;9.13;;
52888;SDS011;41413;52.770;6.892;2023-04-15T07:44:33;9.70;;;8.80;;
52888;SDS011;41413;52.770;6.892;2023-04-15T07:47:01;8.77;;;8.07;;
52888;SDS011;41413;52.770;6.892;2023-04-15T07:49:28;10.25;;;9.10;;
52888;SDS011;41413;52.770;6.892;2023-04-15T07:51:55;9.55;;;8.55;;
52888;SDS011;41413;52.770;6.892;2023-04-15T07:54:23;8.95;;;7.93;;
52888;SDS011;41413;52.770;6.892;2023-04-15T07:56:49;10.05;;;9.23;;
52888;SDS011;41413;52.770;6.892;2023-04-15T07:59:16;8.77;;;8.00;;
52888;SDS011;41413;52.770;6.892;2023-04-15T08:01:43;8.77;;;7.93;;
52888;SDS011;41413;52.770;6.892;2023-04-15T08:04:10;10.23;;;8.93;;
52888;SDS011;41413;52.770;6.892;2023-04-15T08:06:37;8.27;;;7.43;;
52888;SDS011;41413;52.770;6.892;2023-04-15T08:09:05;8.73;;;7.80;;
52888;SDS011;41413;52.770;6.892;2023-04-15T08:11:33;10.15;;;8.00;;
52888;SDS011;41413;52.770;6.892;2023-04-15T08:14:00;8.25;;;7.45;;
52888;SDS011;41413;52.770;6.892;2023-04-15T08:16:27;9.60;;;8.63;;
52888;SDS011;41413;52.770;6.892;2023-04-15T08:18:55;8.77;;;7.57;;
52888;SDS011;41413;52.770;6.892;2023-04-15T08:21:22;8.73;;;7.90;;
52888;SDS011;41413;52.770;6.892;2023-04-15T08:23:50;9.70;;;8.70;;
52888;SDS011;41413;52.770;6.892;2023-04-15T08:26:18;10.30;;;8.93;;
52888;SDS011;41413;52.770;6.892;2023-04-15T08:28:46;8.05;;;7.15;;
52888;SDS011;41413;52.770;6.892;2023-04-15T08:31:13;6.50;;;5.90;;
52888;SDS011;41413;52.770;6.892;2023-04-15T08:33:40;5.90;;;5.30;;
52888;SDS011;41413;52.770;6.892;2023-04-15T08:36:07;7.90;;;5.60;;
52888;SDS011;41413;52.770;6.892;2023-04-15T08:38:34;5.35;;;4.85;;
52888;SDS011;41413;52.770;6.892;2023-04-15T08:41:02;8.38;;;5.78;;
52888;SDS011;41413;52.770;6.892;2023-04-15T08:43:33;6.75;;;6.15;;
52888;SDS011;41413;52.770;6.892;2023-04-15T08:46:04;7.75;;;5.50;;
52888;SDS011;41413;52.770;6.892;2023-04-15T08:48:31;8.73;;;5.28;;
52888;SDS011;41413;52.770;6.892;2023-04-15T08:51:00;5.40;;;4.88;;
52888;SDS011;41413;52.770;6.892;2023-04-15T08:53:28;5.53;;;4.63;;
52888;SDS011;41413;52.770;6.892;2023-04-15T08:55:56;5.80;;;5.28;;
52888;SDS011;41413;52.770;6.892;2023-04-15T08:58:25;4.85;;;4.35;;
52888;SDS011;41413;52.770;6.892;2023-04-15T09:00:51;6.25;;;4.80;;
52888;SDS011;41413;52.770;6.892;2023-04-15T09:03:18;4.88;;;4.47;;
52888;SDS011;41413;52.770;6.892;2023-04-15T09:05:46;8.38;;;4.72;;
52888;SDS011;41413;52.770;6.892;2023-04-15T09:08:14;5.20;;;4.70;;
52888;SDS011;41413;52.770;6.892;2023-04-15T09:10:40;4.82;;;4.43;;
52888;SDS011;41413;52.770;6.892;2023-04-15T09:13:07;5.75;;;5.07;;
52888;SDS011;41413;52.770;6.892;2023-04-15T09:15:35;9.05;;;5.55;;
52888;SDS011;41413;52.770;6.892;2023-04-15T09:18:04;4.95;;;4.03;;
52888;SDS011;41413;52.770;6.892;2023-04-15T09:20:40;5.32;;;4.15;;
52888;SDS011;41413;52.770;6.892;2023-04-15T09:23:11;4.90;;;4.50;;
52888;SDS011;41413;52.770;6.892;2023-04-15T09:25:39;5.18;;;4.65;;
52888;SDS011;41413;52.770;6.892;2023-04-15T09:28:09;5.35;;;4.40;;
52888;SDS011;41413;52.770;6.892;2023-04-15T09:30:36;5.18;;;4.47;;
52888;SDS011;41413;52.770;6.892;2023-04-15T09:33:03;5.72;;;4.60;;
52888;SDS011;41413;52.770;6.892;2023-04-15T09:35:34;4.80;;;4.38;;
52888;SDS011;41413;52.770;6.892;2023-04-15T09:38:02;5.68;;;3.95;;
52888;SDS011;41413;52.770;6.892;2023-04-15T09:42:58;4.95;;;3.63;;
52888;SDS011;41413;52.770;6.892;2023-04-15T09:45:27;5.32;;;3.42;;
52888;SDS011;41413;52.770;6.892;2023-04-15T09:47:56;3.88;;;3.55;;
52888;SDS011;41413;52.770;6.892;2023-04-15T09:50:27;5.85;;;3.65;;
52888;SDS011;41413;52.770;6.892;2023-04-15T09:52:54;7.53;;;4.40;;
52888;SDS011;41413;52.770;6.892;2023-04-15T09:55:21;5.35;;;4.20;;
52888;SDS011;41413;52.770;6.892;2023-04-15T09:57:48;3.95;;;3.65;;
52888;SDS011;41413;52.770;6.892;2023-04-15T10:00:15;4.63;;;3.53;;
52888;SDS011;41413;52.770;6.892;2023-04-15T10:02:42;6.50;;;3.72;;
52888;SDS011;41413;52.770;6.892;2023-04-15T10:05:09;4.82;;;4.30;;
52888;SDS011;41413;52.770;6.892;2023-04-15T10:07:38;5.03;;;3.65;;
52888;SDS011;41413;52.770;6.892;2023-04-15T10:10:09;6.00;;;3.40;;
52888;SDS011;41413;52.770;6.892;2023-04-15T10:12:36;5.93;;;3.95;;
52888;SDS011;41413;52.770;6.892;2023-04-15T10:15:05;4.03;;;3.67;;
52888;SDS011;41413;52.770;6.892;2023-04-15T10:17:42;5.72;;;3.65;;
52888;SDS011;41413;52.770;6.892;2023-04-15T10:20:10;4.18;;;3.20;;
52888;SDS011;41413;52.770;6.892;2023-04-15T10:22:39;3.65;;;3.00;;
52888;SDS011;41413;52.770;6.892;2023-04-15T10:25:08;4.85;;;3.17;;
52888;SDS011;41413;52.770;6.892;2023-04-15T10:27:38;3.22;;;2.83;;
52888;SDS011;41413;52.770;6.892;2023-04-15T10:30:07;3.25;;;3.05;;
52888;SDS011;41413;52.770;6.892;2023-04-15T10:32:34;5.30;;;3.45;;
52888;SDS011;41413;52.770;6.892;2023-04-15T10:35:01;3.53;;;3.22;;
52888;SDS011;41413;52.770;6.892;2023-04-15T10:37:34;4.35;;;2.97;;
52888;SDS011;41413;52.770;6.892;2023-04-15T10:42:53;5.57;;;3.13;;
52888;SDS011;41413;52.770;6.892;2023-04-15T10:45:20;7.00;;;3.92;;
52888;SDS011;41413;52.770;6.892;2023-04-15T10:47:50;6.40;;;3.78;;
52888;SDS011;41413;52.770;6.892;2023-04-15T10:50:24;5.82;;;2.85;;
52888;SDS011;41413;52.770;6.892;2023-04-15T10:52:51;4.43;;;3.03;;
52888;SDS011;41413;52.770;6.892;2023-04-15T10:55:22;3.53;;;2.88;;
52888;SDS011;41413;52.770;6.892;2023-04-15T10:57:53;6.57;;;3.42;;
52888;SDS011;41413;52.770;6.892;2023-04-15T11:00:24;3.55;;;3.20;;
52888;SDS011;41413;52.770;6.892;2023-04-15T11:08:08;8.35;;;3.28;;
52888;SDS011;41413;52.770;6.892;2023-04-15T11:13:03;3.08;;;2.78;;
52888;SDS011;41413;52.770;6.892;2023-04-15T11:15:54;3.28;;;2.97;;
52888;SDS011;41413;52.770;6.892;2023-04-15T11:18:25;8.30;;;3.42;;
52888;SDS011;41413;52.770;6.892;2023-04-15T11:20:54;4.13;;;3.10;;
52888;SDS011;41413;52.770;6.892;2023-04-15T11:26:04;3.17;;;2.70;;
52888;SDS011;41413;52.770;6.892;2023-04-15T11:28:41;6.15;;;3.05;;
52888;SDS011;41413;52.770;6.892;2023-04-15T11:31:10;4.80;;;2.58;;
52888;SDS011;41413;52.770;6.892;2023-04-15T11:36:19;2.70;;;2.50;;
52888;SDS011;41413;52.770;6.892;2023-04-15T11:38:46;3.05;;;2.65;;
52888;SDS011;41413;52.770;6.892;2023-04-15T11:41:13;2.15;;;1.98;;
52888;SDS011;41413;52.770;6.892;2023-04-15T11:43:40;3.13;;;2.83;;
52888;SDS011;41413;52.770;6.892;2023-04-15T11:46:06;3.75;;;2.60;;
52888;SDS011;41413;52.770;6.892;2023-04-15T11:48:34;3.83;;;2.55;;
52888;SDS011;41413;52.770;6.892;2023-04-15T11:51:02;3.33;;;2.17;;
52888;SDS011;41413;52.770;6.892;2023-04-15T11:53:39;3.78;;;2.70;;
52888;SDS011;41413;52.770;6.892;2023-04-15T11:56:10;4.25;;;2.40;;
52888;SDS011;41413;52.770;6.892;2023-04-15T11:58:54;3.08;;;2.63;;
52888;SDS011;41413;52.770;6.892;2023-04-15T12:01:31;5.80;;;2.03;;
52888;SDS011;41413;52.770;6.892;2023-04-15T12:04:01;3.55;;;2.55;;
52888;SDS011;41413;52.770;6.892;2023-04-15T12:06:40;3.25;;;2.33;;
52888;SDS011;41413;52.770;6.892;2023-04-15T12:09:10;5.93;;;2.65;;
52888;SDS011;41413;52.770;6.892;2023-04-15T12:11:39;3.63;;;3.28;;
52888;SDS011;41413;52.770;6.892;2023-04-15T12:14:11;2.95;;;2.35;;
52888;SDS011;41413;52.770;6.892;2023-04-15T12:16:43;5.65;;;2.45;;
52888;SDS011;41413;52.770;6.892;2023-04-15T12:19:16;6.05;;;3.50;;
52888;SDS011;41413;52.770;6.892;2023-04-15T12:21:48;3.67;;;3.10;;
52888;SDS011;41413;52.770;6.892;2023-04-15T12:24:15;5.85;;;2.63;;
52888;SDS011;41413;52.770;6.892;2023-04-15T12:26:47;3.05;;;2.13;;
52888;SDS011;41413;52.770;6.892;2023-04-15T12:29:19;4.38;;;2.50;;
52888;SDS011;41413;52.770;6.892;2023-04-15T12:31:52;3.70;;;2.70;;
52888;SDS011;41413;52.770;6.892;2023-04-15T12:34:28;4.20;;;3.20;;
52888;SDS011;41413;52.770;6.892;2023-04-15T12:36:59;4.75;;;3.03;;
52888;SDS011;41413;52.770;6.892;2023-04-15T12:39:29;9.15;;;3.17;;
52888;SDS011;41413;52.770;6.892;2023-04-15T12:41:58;8.32;;;3.17;;
52888;SDS011;41413;52.770;6.892;2023-04-15T12:44:26;4.47;;;3.40;;
52888;SDS011;41413;52.770;6.892;2023-04-15T12:46:53;5.00;;;2.72;;
52888;SDS011;41413;52.770;6.892;2023-04-15T12:49:20;6.72;;;3.50;;
52888;SDS011;41413;52.770;6.892;2023-04-15T12:51:48;6.75;;;3.47;;
52888;SDS011;41413;52.770;6.892;2023-04-15T12:54:16;6.35;;;2.72;;
52888;SDS011;41413;52.770;6.892;2023-04-15T12:56:45;5.60;;;3.03;;
52888;SDS011;41413;52.770;6.892;2023-04-15T12:59:13;4.45;;;3.15;;
52888;SDS011;41413;52.770;6.892;2023-04-15T13:01:40;3.90;;;3.47;;
52888;SDS011;41413;52.770;6.892;2023-04-15T13:04:07;3.33;;;2.95;;
52888;SDS011;41413;52.770;6.892;2023-04-15T13:06:34;5.03;;;3.28;;
52888;SDS011;41413;52.770;6.892;2023-04-15T13:09:01;5.07;;;2.58;;
52888;SDS011;41413;52.770;6.892;2023-04-15T13:11:30;6.07;;;3.17;;
52888;SDS011;41413;52.770;6.892;2023-04-15T13:13:59;5.30;;;2.60;;
52888;SDS011;41413;52.770;6.892;2023-04-15T13:16:27;3.95;;;2.53;;
52888;SDS011;41413;52.770;6.892;2023-04-15T13:18:54;7.43;;;3.50;;
52888;SDS011;41413;52.770;6.892;2023-04-15T13:21:21;9.70;;;3.53;;
52888;SDS011;41413;52.770;6.892;2023-04-15T13:23:48;8.48;;;3.20;;
52888;SDS011;41413;52.770;6.892;2023-04-15T13:26:17;4.18;;;2.53;;
52888;SDS011;41413;52.770;6.892;2023-04-15T13:28:44;2.88;;;2.55;;
52888;SDS011;41413;52.770;6.892;2023-04-15T13:31:11;7.68;;;3.60;;
52888;SDS011;41413;52.770;6.892;2023-04-15T13:33:38;5.47;;;3.70;;
52888;SDS011;41413;52.770;6.892;2023-04-15T13:36:05;4.30;;;3.42;;
52888;SDS011;41413;52.770;6.892;2023-04-15T13:38:32;7.97;;;4.05;;
52888;SDS011;41413;52.770;6.892;2023-04-15T13:40:58;8.35;;;3.30;;
52888;SDS011;41413;52.770;6.892;2023-04-15T13:43:25;4.38;;;2.50;;
52888;SDS011;41413;52.770;6.892;2023-04-15T13:45:52;4.68;;;3.17;;
52888;SDS011;41413;52.770;6.892;2023-04-15T13:48:18;8.10;;;2.70;;
52888;SDS011;41413;52.770;6.892;2023-04-15T13:50:45;8.27;;;3.58;;
52888;SDS011;41413;52.770;6.892;2023-04-15T13:53:12;4.95;;;2.85;;
52888;SDS011;41413;52.770;6.892;2023-04-15T13:55:39;6.20;;;2.70;;
52888;SDS011;41413;52.770;6.892;2023-04-15T13:58:07;6.80;;;3.83;;
52888;SDS011;41413;52.770;6.892;2023-04-15T14:00:35;5.35;;;2.45;;
52888;SDS011;41413;52.770;6.892;2023-04-15T14:03:01;6.07;;;3.13;;
52888;SDS011;41413;52.770;6.892;2023-04-15T14:05:28;3.97;;;2.55;;
52888;SDS011;41413;52.770;6.892;2023-04-15T14:07:55;6.85;;;2.50;;
52888;SDS011;41413;52.770;6.892;2023-04-15T14:10:22;5.15;;;2.80;;
52888;SDS011;41413;52.770;6.892;2023-04-15T14:12:48;5.80;;;3.28;;
52888;SDS011;41413;52.770;6.892;2023-04-15T14:15:15;7.95;;;3.88;;
52888;SDS011;41413;52.770;6.892;2023-04-15T14:17:42;7.78;;;4.00;;
52888;SDS011;41413;52.770;6.892;2023-04-15T14:20:09;8.05;;;4.72;;
52888;SDS011;41413;52.770;6.892;2023-04-15T14:22:36;5.72;;;3.67;;
52888;SDS011;41413;52.770;6.892;2023-04-15T14:25:03;4.40;;;3.15;;
52888;SDS011;41413;52.770;6.892;2023-04-15T14:27:31;11.18;;;3.58;;
52888;SDS011;41413;52.770;6.892;2023-04-15T14:29:58;7.63;;;3.95;;
52888;SDS011;41413;52.770;6.892;2023-04-15T14:32:25;8.63;;;3.88;;
52888;SDS011;41413;52.770;6.892;2023-04-15T14:34:52;7.28;;;3.38;;
52888;SDS011;41413;52.770;6.892;2023-04-15T14:37:18;12.63;;;4.38;;
52888;SDS011;41413;52.770;6.892;2023-04-15T14:39:45;6.60;;;2.97;;
52888;SDS011;41413;52.770;6.892;2023-04-15T14:42:12;7.72;;;3.78;;
52888;SDS011;41413;52.770;6.892;2023-04-15T14:44:38;4.35;;;2.85;;
52888;SDS011;41413;52.770;6.892;2023-04-15T14:47:05;5.68;;;3.00;;
52888;SDS011;41413;52.770;6.892;2023-04-15T14:49:32;7.72;;;2.90;;
52888;SDS011;41413;52.770;6.892;2023-04-15T14:51:58;5.90;;;3.60;;
52888;SDS011;41413;52.770;6.892;2023-04-15T14:54:25;10.82;;;3.45;;
52888;SDS011;41413;52.770;6.892;2023-04-15T14:56:52;11.82;;;4.38;;
52888;SDS011;41413;52.770;6.892;2023-04-15T14:59:18;9.02;;;3.97;;